createdAt,value
2023-04-21T00:02:31.971Z,6.9
2023-04-21T00:05:23.775Z,6.9
2023-04-21T00:08:11.852Z,6.9
2023-04-21T00:10:59.437Z,6.9
2023-04-21T00:13:47.176Z,6.9
2023-04-21T00:16:34.850Z,6.8
2023-04-21T00:19:22.911Z,6.8
2023-04-21T00:22:10.689Z,6.8
2023-04-21T00:24:58.487Z,6.8
2023-04-21T00:27:46.137Z,6.8
2023-04-21T00:30:33.989Z,6.8
2023-04-21T00:33:21.772Z,6.8
2023-04-21T00:36:09.606Z,6.8
2023-04-21T00:38:57.339Z,6.8
2023-04-21T00:41:45.121Z,6.8
2023-04-21T00:44:32.879Z,6.8
2023-04-21T00:47:20.662Z,6.8
2023-04-21T00:50:08.418Z,6.8
2023-04-21T00:52:56.144Z,6.8
2023-04-21T00:55:43.812Z,6.8
2023-04-21T00:58:31.667Z,6.8
2023-04-21T01:01:19.565Z,6.8
2023-04-21T01:04:07.658Z,6.8
2023-04-21T01:06:55.681Z,6.8
2023-04-21T01:09:43.413Z,6.9
2023-04-21T01:12:31.204Z,6.8
2023-04-21T01:15:18.989Z,6.8
2023-04-21T01:18:06.847Z,6.8
2023-04-21T01:20:54.671Z,6.9
2023-04-21T01:23:42.276Z,6.9
2023-04-21T01:26:30.164Z,6.9
2023-04-21T01:29:17.934Z,6.9
2023-04-21T01:32:06.275Z,6.9
2023-04-21T01:34:54.158Z,6.9
2023-04-21T01:37:41.970Z,6.9
2023-04-21T01:40:29.694Z,6.9
2023-04-21T01:43:17.534Z,6.9
2023-04-21T01:46:05.206Z,6.9
2023-04-21T01:48:53.115Z,6.9
2023-04-21T01:51:40.751Z,6.9
2023-04-21T01:54:28.465Z,6.9
2023-04-21T01:57:16.318Z,6.9
2023-04-21T02:00:04.189Z,6.9
2023-04-21T02:02:52.041Z,6.9
2023-04-21T02:05:40.083Z,6.9
2023-04-21T02:08:27.736Z,6.9
2023-04-21T02:11:15.423Z,6.9
2023-04-21T02:14:03.143Z,7
2023-04-21T02:16:51.032Z,6.9
2023-04-21T02:19:38.921Z,6.9
2023-04-21T02:22:26.645Z,7
2023-04-21T02:25:14.299Z,7
2023-04-21T02:28:02.218Z,7
2023-04-21T02:30:49.903Z,7
2023-04-21T02:33:37.783Z,7
2023-04-21T02:36:25.456Z,7
2023-04-21T02:39:13.199Z,7
2023-04-21T02:42:01.053Z,7
2023-04-21T02:44:49.017Z,7
2023-04-21T02:47:36.858Z,7
2023-04-21T02:50:24.838Z,7
2023-04-21T02:53:12.562Z,7
2023-04-21T02:56:00.246Z,7
2023-04-21T02:58:48.056Z,7
2023-04-21T03:01:35.913Z,7
2023-04-21T03:04:23.947Z,7
2023-04-21T03:07:12.098Z,7
2023-04-21T03:09:59.778Z,7
2023-04-21T03:12:47.658Z,7
2023-04-21T03:15:35.336Z,7
2023-04-21T03:18:23.326Z,7
2023-04-21T03:21:11.043Z,7
2023-04-21T03:23:58.900Z,7
2023-04-21T03:26:46.576Z,6.9
2023-04-21T03:29:34.360Z,6.9
2023-04-21T03:32:22.366Z,6.8
2023-04-21T03:35:10.392Z,6.8
2023-04-21T03:37:58.119Z,6.7
2023-04-21T03:40:45.967Z,6.7
2023-04-21T03:43:33.738Z,6.6
2023-04-21T03:46:21.732Z,6.6
2023-04-21T03:49:09.799Z,6.5
2023-04-21T03:51:57.550Z,6.5
2023-04-21T03:54:45.281Z,6.4
2023-04-21T03:57:33.168Z,6.4
2023-04-21T04:00:21.204Z,6.4
2023-04-21T04:03:09.715Z,6.4
2023-04-21T04:05:57.973Z,6.4
2023-04-21T04:08:45.780Z,6.4
2023-04-21T04:11:33.517Z,6.4
2023-04-21T04:14:21.312Z,6.3
2023-04-21T04:17:08.928Z,6.3
2023-04-21T04:19:56.869Z,6.3
2023-04-21T04:22:44.670Z,6.3
2023-04-21T04:25:32.527Z,6.3
2023-04-21T04:28:20.223Z,6.3
2023-04-21T04:31:08.059Z,6.3
2023-04-21T04:33:55.931Z,6.3
2023-04-21T04:36:43.713Z,6.2
2023-04-21T04:39:31.475Z,6.2
2023-04-21T04:42:19.267Z,6.2
2023-04-21T04:45:06.962Z,6.2
2023-04-21T04:47:55.117Z,6.2
2023-04-21T04:50:42.883Z,6.2
2023-04-21T04:53:30.613Z,6.2
2023-04-21T04:56:18.217Z,6.3
2023-04-21T04:59:05.979Z,6.3
2023-04-21T05:01:53.818Z,6.4
2023-04-21T05:04:42.248Z,6.4
2023-04-21T05:07:30.309Z,6.4
2023-04-21T05:10:18.287Z,6.5
2023-04-21T05:13:05.991Z,6.5
2023-04-21T05:15:53.751Z,6.5
2023-04-21T05:18:41.378Z,6.6
2023-04-21T05:21:29.165Z,6.6
2023-04-21T05:24:16.825Z,6.7
2023-04-21T05:27:04.843Z,6.7
2023-04-21T05:29:52.491Z,6.7
2023-04-21T05:32:40.576Z,6.8
2023-04-21T05:35:28.541Z,7
2023-04-21T05:38:16.375Z,7.1
2023-04-21T05:41:04.055Z,7.3
2023-04-21T05:43:51.734Z,7.5
2023-04-21T05:46:39.737Z,7.8
2023-04-21T05:49:27.710Z,8
2023-04-21T05:52:15.291Z,8.2
2023-04-21T05:55:03.180Z,8.4
2023-04-21T05:57:50.858Z,8.5
2023-04-21T06:00:38.689Z,8.7
2023-04-21T06:03:26.782Z,8.8
2023-04-21T06:06:15.097Z,8.9
2023-04-21T06:09:02.958Z,8.9
2023-04-21T06:11:50.929Z,8.9
2023-04-21T06:14:38.887Z,8.9
2023-04-21T06:17:26.769Z,8.9
2023-04-21T06:20:14.780Z,9
2023-04-21T06:23:02.545Z,9
2023-04-21T06:25:50.222Z,9.1
2023-04-21T06:28:38.109Z,9.2
2023-04-21T06:31:25.840Z,9.3
2023-04-21T06:34:13.897Z,9.4
2023-04-21T06:37:01.689Z,9.5
2023-04-21T06:39:49.498Z,9.7
2023-04-21T06:42:37.170Z,10
2023-04-21T06:45:24.958Z,10.3
2023-04-21T06:48:12.867Z,10.7
2023-04-21T06:51:00.684Z,10.9
2023-04-21T06:53:48.447Z,11
2023-04-21T06:56:36.215Z,11.1
2023-04-21T06:59:23.923Z,11.1
2023-04-21T07:02:11.783Z,11.4
2023-04-21T07:04:59.697Z,11.7
2023-04-21T07:07:47.430Z,12.1
2023-04-21T07:10:35.195Z,12.7
2023-04-21T07:13:23.158Z,13.5
2023-04-21T07:16:11.095Z,14.6
2023-04-21T07:18:59.210Z,15.6
2023-04-21T07:21:46.817Z,16
2023-04-21T07:24:34.549Z,16.1
2023-04-21T07:27:22.344Z,15.9
2023-04-21T07:30:10.209Z,15.6
2023-04-21T07:32:57.919Z,15.5
2023-04-21T07:35:46.700Z,15.3
2023-04-21T07:38:34.841Z,15.6
2023-04-21T07:41:22.869Z,15.5
2023-04-21T07:44:10.787Z,16
2023-04-21T07:46:58.849Z,16.7
2023-04-21T07:49:46.786Z,17
2023-04-21T07:52:34.581Z,16.8
2023-04-21T07:55:22.419Z,16.7
2023-04-21T07:58:10.141Z,16.5
2023-04-21T08:00:57.890Z,16.2
2023-04-21T08:03:46.146Z,16
2023-04-21T08:06:34.549Z,16
2023-04-21T08:09:22.795Z,15.9
2023-04-21T08:12:11.036Z,15.7
2023-04-21T08:14:58.825Z,15.6
2023-04-21T08:17:47.041Z,15.3
2023-04-21T08:20:34.961Z,15
2023-04-21T08:23:22.753Z,14.9
2023-04-21T08:26:11.075Z,15
2023-04-21T08:28:58.874Z,15.2
2023-04-21T08:31:46.841Z,15.4
2023-04-21T08:34:34.683Z,15.5
2023-04-21T08:37:22.555Z,15.2
2023-04-21T08:40:10.411Z,14.9
2023-04-21T08:42:59.365Z,14.7
2023-04-21T08:45:47.471Z,15
2023-04-21T08:48:35.608Z,15.4
2023-04-21T08:51:23.273Z,16
2023-04-21T08:54:11.128Z,16.2
2023-04-21T08:57:04.795Z,16.3
2023-04-21T09:00:04.929Z,16.8
2023-04-21T09:03:00.571Z,17.5
2023-04-21T09:05:50.724Z,18
2023-04-21T09:08:38.713Z,17.8
2023-04-21T09:11:26.642Z,17.5
2023-04-21T09:14:14.281Z,17.4
2023-04-21T09:17:02.648Z,17.8
2023-04-21T09:19:50.715Z,17.8
2023-04-21T09:22:38.546Z,17.4
2023-04-21T09:25:26.215Z,17.3
2023-04-21T09:28:13.964Z,17.4
2023-04-21T09:31:01.673Z,17.1
2023-04-21T09:34:01.268Z,16.6
2023-04-21T09:36:49.648Z,16.1
2023-04-21T09:39:46.077Z,15.7
2023-04-21T09:42:51.198Z,15.3
2023-04-21T09:45:41.980Z,15.1
2023-04-21T09:48:29.817Z,14.9
2023-04-21T09:51:32.605Z,14.8
2023-04-21T09:54:58.590Z,14.7
2023-04-21T09:57:46.260Z,14.6
2023-04-21T10:00:33.984Z,14.4
2023-04-21T10:03:22.049Z,14.2
2023-04-21T10:06:11.592Z,14.3
2023-04-21T10:08:59.898Z,14.3
2023-04-21T10:11:47.727Z,14.4
2023-04-21T10:14:35.513Z,14.4
2023-04-21T10:17:23.358Z,14.6
2023-04-21T10:20:11.123Z,14.8
2023-04-21T10:22:58.864Z,15.1
2023-04-21T10:25:46.646Z,15.5
2023-04-21T10:28:34.374Z,15.6
2023-04-21T10:31:22.243Z,15.8
2023-04-21T10:34:10.178Z,15.8
2023-04-21T10:36:57.885Z,16
2023-04-21T10:39:45.877Z,16.1
2023-04-21T10:42:33.754Z,16.2
2023-04-21T10:45:21.540Z,16.6
2023-04-21T10:48:09.390Z,16.9
2023-04-21T10:50:57.366Z,16.9
2023-04-21T10:53:45.092Z,16.8
2023-04-21T10:56:32.925Z,16.8
2023-04-21T10:59:20.759Z,16.8
2023-04-21T11:02:08.577Z,16.7
2023-04-21T11:04:57.480Z,16.8
2023-04-21T11:07:45.771Z,16.9
2023-04-21T11:10:33.428Z,17
2023-04-21T11:13:21.207Z,17.2
2023-04-21T11:16:09.177Z,17.2
2023-04-21T11:18:57.013Z,17.2
2023-04-21T11:21:44.738Z,17.1
2023-04-21T11:24:32.568Z,17.4
2023-04-21T11:27:20.375Z,17.5
2023-04-21T11:30:08.109Z,17.5
2023-04-21T11:32:55.996Z,17.4
2023-04-21T11:35:43.985Z,17.2
2023-04-21T11:38:31.739Z,17
2023-04-21T11:41:19.679Z,16.7
2023-04-21T11:44:08.061Z,16.5
2023-04-21T11:46:56.164Z,16.4
2023-04-21T11:49:43.845Z,16.4
2023-04-21T11:52:31.613Z,16.5
2023-04-21T11:55:19.291Z,16.9
2023-04-21T11:58:06.960Z,17.2
2023-04-21T12:00:54.786Z,17.2
2023-04-21T12:03:43.336Z,17.3
2023-04-21T12:06:31.349Z,17.5
2023-04-21T12:09:19.189Z,17.4
2023-04-21T12:12:06.929Z,17.4
2023-04-21T12:14:54.829Z,17.6
2023-04-21T12:17:42.666Z,18
2023-04-21T12:20:30.701Z,18.3
2023-04-21T12:23:19.278Z,18.6
2023-04-21T12:26:07.373Z,18.7
2023-04-21T12:28:55.369Z,18.9
2023-04-21T12:31:43.601Z,19.1
2023-04-21T12:34:31.937Z,19.1
2023-04-21T12:37:19.930Z,19
2023-04-21T12:40:08.080Z,19.1
2023-04-21T12:42:56.376Z,19.3
2023-04-21T12:45:44.490Z,19.5
2023-04-21T12:48:32.566Z,19.8
2023-04-21T12:51:20.195Z,20.1
2023-04-21T12:54:08.116Z,20.1
2023-04-21T12:56:55.803Z,20
2023-04-21T12:59:45.587Z,19.7
2023-04-21T13:02:34.526Z,19.7
2023-04-21T13:05:22.545Z,19.5
2023-04-21T13:08:10.402Z,19.1
2023-04-21T13:10:58.139Z,18.8
2023-04-21T13:13:46.067Z,18.6
2023-04-21T13:16:33.958Z,18.5
2023-04-21T13:19:21.840Z,18.3
2023-04-21T13:22:09.753Z,18.1
2023-04-21T13:24:57.505Z,17.9
2023-04-21T13:27:45.302Z,17.8
2023-04-21T13:30:33.281Z,17.7
2023-04-21T13:33:21.220Z,18.1
2023-04-21T13:36:11.207Z,19
2023-04-21T13:39:01.314Z,19.5
2023-04-21T13:41:50.612Z,19.7
2023-04-21T13:44:42.036Z,20
2023-04-21T13:47:30.521Z,20.5
2023-04-21T13:50:18.771Z,20.7
2023-04-21T13:53:06.601Z,20.9
2023-04-21T13:55:54.665Z,20.9
2023-04-21T13:58:42.274Z,21.1
2023-04-21T14:01:30.223Z,21.2
2023-04-21T14:04:18.403Z,21.3
2023-04-21T14:07:06.423Z,21
2023-04-21T14:09:54.029Z,20.9
2023-04-21T14:12:41.964Z,21
2023-04-21T14:15:29.645Z,21
2023-04-21T14:18:17.560Z,21.1
2023-04-21T14:21:05.598Z,21.1
2023-04-21T14:23:53.544Z,21.3
2023-04-21T14:26:41.232Z,21.4
2023-04-21T14:29:29.145Z,21.3
2023-04-21T14:32:17.215Z,20.7
2023-04-21T14:35:05.355Z,20.1
2023-04-21T14:37:55.200Z,19.9
2023-04-21T14:40:43.226Z,20.3
2023-04-21T14:43:30.847Z,20.4
2023-04-21T14:46:18.877Z,20.3
2023-04-21T14:49:06.650Z,20.4
2023-04-21T14:51:54.583Z,20.3
2023-04-21T14:54:42.372Z,20
2023-04-21T14:57:46.923Z,19.6
2023-04-21T15:00:34.809Z,19.1
2023-04-21T15:03:23.071Z,18.7
2023-04-21T15:06:11.189Z,18.3
2023-04-21T15:08:59.066Z,18.2
2023-04-21T15:11:47.175Z,18.4
2023-04-21T15:14:35.057Z,18.6
2023-04-21T15:17:22.879Z,18.8
2023-04-21T15:20:10.746Z,18.9
2023-04-21T15:22:58.449Z,19.1
2023-04-21T15:25:46.184Z,19.5
2023-04-21T15:28:34.224Z,20.1
2023-04-21T15:31:22.203Z,20.5
2023-04-21T15:34:10.204Z,20.7
2023-04-21T15:36:58.051Z,20.9
2023-04-21T15:39:45.872Z,21.2
2023-04-21T15:42:34.062Z,21.5
2023-04-21T15:45:21.999Z,21.9
2023-04-21T15:48:10.091Z,22.1
2023-04-21T15:50:58.328Z,21.5
2023-04-21T15:53:48.628Z,21
2023-04-21T15:56:36.539Z,20.5
2023-04-21T15:59:26.013Z,20.3
2023-04-21T16:02:14.519Z,20.5
2023-04-21T16:05:03.282Z,21.3
2023-04-21T16:07:51.721Z,21.5
2023-04-21T16:10:39.700Z,22.2
2023-04-21T16:13:27.711Z,22.9
2023-04-21T16:16:15.931Z,22.9
2023-04-21T16:19:04.009Z,22.7
2023-04-21T16:21:52.053Z,21.9
2023-04-21T16:24:40.091Z,21.5
2023-04-21T16:27:28.712Z,21.4
2023-04-21T16:30:16.432Z,21.5
2023-04-21T16:33:04.568Z,21.5
2023-04-21T16:35:52.517Z,21.4
2023-04-21T16:38:41.573Z,21
2023-04-21T16:41:29.420Z,20.3
2023-04-21T16:44:17.388Z,19.7
2023-04-21T16:47:05.442Z,19.1
2023-04-21T16:49:53.396Z,18.8
2023-04-21T16:52:41.299Z,18.4
2023-04-21T16:55:29.065Z,18.2
2023-04-21T16:58:16.698Z,18
2023-04-21T17:01:04.548Z,17.8
2023-04-21T17:03:52.818Z,17.7
2023-04-21T17:06:40.917Z,17.5
2023-04-21T17:09:28.592Z,17
2023-04-21T17:12:16.584Z,16.7
2023-04-21T17:15:04.576Z,16.5
2023-04-21T17:17:52.517Z,16.4
2023-04-21T17:20:40.196Z,16.2
2023-04-21T17:23:27.870Z,16
2023-04-21T17:26:15.547Z,15.9
2023-04-21T17:29:03.231Z,15.8
2023-04-21T17:31:51.046Z,15.6
2023-04-21T17:34:39.173Z,15.5
2023-04-21T17:37:27.609Z,15.3
2023-04-21T17:40:15.505Z,15.2
2023-04-21T17:43:03.268Z,15.1
2023-04-21T17:45:51.112Z,15
2023-04-21T17:48:39.050Z,15
2023-04-21T17:51:29.307Z,14.9
2023-04-21T17:54:16.917Z,14.8
2023-04-21T17:57:04.640Z,14.8
2023-04-21T17:59:52.423Z,14.7
2023-04-21T18:02:40.313Z,14.6
2023-04-21T18:05:28.403Z,14.5
2023-04-21T18:08:16.265Z,14.4
2023-04-21T18:11:03.879Z,14.3
2023-04-21T18:13:51.600Z,14.2
2023-04-21T18:16:39.601Z,14.2
2023-04-21T18:19:27.519Z,14
2023-04-21T18:22:15.159Z,13.9
2023-04-21T18:25:03.325Z,13.7
2023-04-21T18:27:50.977Z,13.6
2023-04-21T18:30:38.676Z,13.5
2023-04-21T18:33:26.752Z,13.5
2023-04-21T18:36:14.583Z,13.3
2023-04-21T18:39:02.364Z,13.3
2023-04-21T18:41:50.331Z,13.1
2023-04-21T18:44:38.691Z,13
2023-04-21T18:47:27.276Z,12.9
2023-04-21T18:50:16.209Z,12.7
2023-04-21T18:53:04.049Z,12.5
2023-04-21T18:55:51.724Z,12.5
2023-04-21T18:58:39.648Z,12.3
2023-04-21T19:01:27.454Z,12.1
2023-04-21T19:04:15.886Z,12
2023-04-21T19:07:04.087Z,11.9
2023-04-21T19:09:51.847Z,11.9
2023-04-21T19:12:39.451Z,11.8
2023-04-21T19:15:27.224Z,11.8
2023-04-21T19:18:15.026Z,11.8
2023-04-21T19:21:02.950Z,11.8
2023-04-21T19:23:50.830Z,11.8
2023-04-21T19:26:38.606Z,11.8
2023-04-21T19:29:26.358Z,11.8
2023-04-21T19:32:14.166Z,11.9
2023-04-21T19:35:02.079Z,11.8
2023-04-21T19:37:49.857Z,11.8
2023-04-21T19:40:37.538Z,11.7
2023-04-21T19:43:25.324Z,11.9
2023-04-21T19:46:13.124Z,12
2023-04-21T19:49:01.070Z,12
2023-04-21T19:51:48.877Z,11.9
2023-04-21T19:54:40.642Z,11.7
2023-04-21T19:57:28.563Z,11.5
2023-04-21T20:00:16.373Z,11.4
2023-04-21T20:03:04.467Z,11.4
2023-04-21T20:05:52.691Z,11.3
2023-04-21T20:08:40.451Z,11.1
2023-04-21T20:11:29.239Z,11
2023-04-21T20:14:17.242Z,10.9
2023-04-21T20:17:05.385Z,10.9
2023-04-21T20:19:53.111Z,10.9
2023-04-21T20:22:40.941Z,10.8
2023-04-21T20:25:28.754Z,10.6
2023-04-21T20:28:16.508Z,10.5
2023-04-21T20:31:04.204Z,10.2
2023-04-21T20:33:52.129Z,10
2023-04-21T20:36:39.688Z,9.9
2023-04-21T20:39:27.568Z,9.8
2023-04-21T20:42:21.300Z,9.7
2023-04-21T20:45:09.118Z,9.6
2023-04-21T20:47:56.848Z,9.6
2023-04-21T20:50:46.067Z,9.6
2023-04-21T20:53:37.308Z,9.5
2023-04-21T20:56:25.371Z,9.5
2023-04-21T20:59:13.028Z,9.5
2023-04-21T21:02:00.836Z,9.4
2023-04-21T21:04:49.059Z,9.4
2023-04-21T21:07:36.894Z,9.4
2023-04-21T21:10:24.470Z,9.3
2023-04-21T21:13:12.222Z,9.2
2023-04-21T21:16:00.044Z,9.2
2023-04-21T21:18:47.772Z,9.2
2023-04-21T21:21:35.495Z,9.2
2023-04-21T21:24:23.386Z,9.2
2023-04-21T21:27:11.216Z,9.2
2023-04-21T21:29:58.987Z,9.1
2023-04-21T21:32:47.093Z,9
2023-04-21T21:35:34.851Z,9
2023-04-21T21:38:22.557Z,9
2023-04-21T21:41:10.282Z,9
2023-04-21T21:43:58.132Z,8.9
2023-04-21T21:46:46.242Z,8.9
2023-04-21T21:49:34.305Z,8.8
2023-04-21T21:52:22.101Z,8.8
2023-04-21T21:55:10.079Z,8.8
2023-04-21T21:57:57.852Z,8.6
2023-04-21T22:00:45.535Z,8.6
2023-04-21T22:03:33.500Z,8.5
2023-04-21T22:06:21.665Z,8.5
2023-04-21T22:09:09.350Z,8.4
2023-04-21T22:11:57.191Z,8.3
2023-04-21T22:14:51.827Z,8.3
2023-04-21T22:17:39.531Z,8.2
2023-04-21T22:20:27.513Z,8.1
2023-04-21T22:23:15.125Z,8
2023-04-21T22:26:02.852Z,8
2023-04-21T22:28:50.508Z,7.9
2023-04-21T22:31:38.301Z,7.8
2023-04-21T22:34:26.121Z,7.8
2023-04-21T22:37:13.969Z,7.8
2023-04-21T22:40:01.738Z,7.8
2023-04-21T22:42:49.569Z,7.6
2023-04-21T22:45:37.490Z,7.6
2023-04-21T22:48:25.282Z,7.5
2023-04-21T22:51:13.119Z,7.5
2023-04-21T22:54:00.958Z,7.4
2023-04-21T22:56:48.669Z,7.3
2023-04-21T22:59:36.790Z,7.2
2023-04-21T23:02:25.261Z,7.2
2023-04-21T23:05:13.506Z,7.2
2023-04-21T23:08:01.299Z,7
2023-04-21T23:10:49.151Z,7
2023-04-21T23:13:39.463Z,7
2023-04-21T23:16:27.323Z,7
2023-04-21T23:19:15.186Z,7
2023-04-21T23:22:02.819Z,7.1
2023-04-21T23:24:50.501Z,7.2
2023-04-21T23:27:38.267Z,7.2
2023-04-21T23:30:25.864Z,7.2
2023-04-21T23:33:13.712Z,7.2
2023-04-21T23:36:01.498Z,7.2
2023-04-21T23:38:49.262Z,7.2
2023-04-21T23:41:36.940Z,7.1
2023-04-21T23:44:24.905Z,7.1
2023-04-21T23:47:12.557Z,7
2023-04-21T23:50:00.344Z,7
2023-04-21T23:52:48.070Z,7
2023-04-21T23:55:35.866Z,7
2023-04-21T23:58:23.536Z,7
